sensor_id;sensor_type;location;lat;lon;timestamp;P1;durP1;ratioP1;P2;durP2;ratioP2
7539;SDS011;3811;49.006;12.076;2023-03-01T00:00:21;15.30;;;10.83;;
7539;SDS011;3811;49.006;12.076;2023-03-01T00:02:49;15.47;;;9.87;;
7539;SDS011;3811;49.006;12.076;2023-03-01T00:05:16;17.17;;;10.13;;
7539;SDS011;3811;49.006;12.076;2023-03-01T00:07:43;15.03;;;10.47;;
7539;SDS011;3811;49.006;12.076;2023-03-01T00:10:11;15.67;;;10.27;;
7539;SDS011;3811;49.006;12.076;2023-03-01T00:12:38;17.00;;;10.47;;
7539;SDS011;3811;49.006;12.076;2023-03-01T00:15:06;17.73;;;10.57;;
7539;SDS011;3811;49.006;12.076;2023-03-01T00:17:35;16.20;;;10.50;;
7539;SDS011;3811;49.006;12.076;2023-03-01T00:20:02;17.30;;;10.00;;
7539;SDS011;3811;49.006;12.076;2023-03-01T00:22:33;14.47;;;10.00;;
7539;SDS011;3811;49.006;12.076;2023-03-01T00:25:00;15.37;;;10.80;;
7539;SDS011;3811;49.006;12.076;2023-03-01T00:27:27;16.43;;;11.13;;
7539;SDS011;3811;49.006;12.076;2023-03-01T00:29:55;18.40;;;10.97;;
7539;SDS011;3811;49.006;12.076;2023-03-01T00:32:22;15.23;;;10.17;;
7539;SDS011;3811;49.006;12.076;2023-03-01T00:34:51;16.90;;;11.37;;
7539;SDS011;3811;49.006;12.076;2023-03-01T00:37:20;17.63;;;11.27;;
7539;SDS011;3811;49.006;12.076;2023-03-01T00:39:48;19.60;;;11.47;;
7539;SDS011;3811;49.006;12.076;2023-03-01T00:42:16;18.87;;;11.23;;
7539;SDS011;3811;49.006;12.076;2023-03-01T00:44:43;17.40;;;10.77;;
7539;SDS011;3811;49.006;12.076;2023-03-01T00:47:11;19.27;;;10.80;;
7539;SDS011;3811;49.006;12.076;2023-03-01T00:49:39;16.57;;;10.37;;
7539;SDS011;3811;49.006;12.076;2023-03-01T00:52:07;19.77;;;10.67;;
7539;SDS011;3811;49.006;12.076;2023-03-01T00:54:35;15.57;;;10.17;;
7539;SDS011;3811;49.006;12.076;2023-03-01T00:57:02;20.50;;;11.60;;
7539;SDS011;3811;49.006;12.076;2023-03-01T00:59:30;17.87;;;10.77;;
7539;SDS011;3811;49.006;12.076;2023-03-01T01:01:58;18.30;;;10.53;;
7539;SDS011;3811;49.006;12.076;2023-03-01T01:04:25;21.03;;;11.50;;
7539;SDS011;3811;49.006;12.076;2023-03-01T01:06:52;18.60;;;11.97;;
7539;SDS011;3811;49.006;12.076;2023-03-01T01:09:21;17.83;;;11.10;;
7539;SDS011;3811;49.006;12.076;2023-03-01T01:11:49;17.13;;;10.87;;
7539;SDS011;3811;49.006;12.076;2023-03-01T01:14:18;19.57;;;11.70;;
7539;SDS011;3811;49.006;12.076;2023-03-01T01:16:45;21.37;;;11.67;;
7539;SDS011;3811;49.006;12.076;2023-03-01T01:19:13;19.10;;;11.73;;
7539;SDS011;3811;49.006;12.076;2023-03-01T01:21:40;19.70;;;11.83;;
7539;SDS011;3811;49.006;12.076;2023-03-01T01:24:08;18.40;;;11.60;;
7539;SDS011;3811;49.006;12.076;2023-03-01T01:26:37;17.03;;;10.93;;
7539;SDS011;3811;49.006;12.076;2023-03-01T01:29:04;16.20;;;10.67;;
7539;SDS011;3811;49.006;12.076;2023-03-01T01:31:32;18.33;;;10.70;;
7539;SDS011;3811;49.006;12.076;2023-03-01T01:34:00;17.23;;;10.93;;
7539;SDS011;3811;49.006;12.076;2023-03-01T01:36:27;15.37;;;10.77;;
7539;SDS011;3811;49.006;12.076;2023-03-01T01:38:54;18.30;;;11.37;;
7539;SDS011;3811;49.006;12.076;2023-03-01T01:41:22;18.63;;;10.07;;
7539;SDS011;3811;49.006;12.076;2023-03-01T01:49:25;19.03;;;11.87;;
7539;SDS011;3811;49.006;12.076;2023-03-01T01:51:56;18.17;;;10.37;;
7539;SDS011;3811;49.006;12.076;2023-03-01T01:54:26;16.97;;;10.73;;
7539;SDS011;3811;49.006;12.076;2023-03-01T01:56:55;15.00;;;9.97;;
7539;SDS011;3811;49.006;12.076;2023-03-01T01:59:27;18.10;;;9.93;;
7539;SDS011;3811;49.006;12.076;2023-03-01T02:01:56;15.30;;;9.63;;
7539;SDS011;3811;49.006;12.076;2023-03-01T02:04:25;21.23;;;11.03;;
7539;SDS011;3811;49.006;12.076;2023-03-01T02:06:55;17.77;;;10.33;;
7539;SDS011;3811;49.006;12.076;2023-03-01T02:09:27;16.87;;;11.23;;
7539;SDS011;3811;49.006;12.076;2023-03-01T02:11:54;18.43;;;11.43;;
7539;SDS011;3811;49.006;12.076;2023-03-01T02:14:23;18.23;;;10.63;;
7539;SDS011;3811;49.006;12.076;2023-03-01T02:16:52;15.83;;;10.43;;
7539;SDS011;3811;49.006;12.076;2023-03-01T02:19:23;19.57;;;10.20;;
7539;SDS011;3811;49.006;12.076;2023-03-01T02:21:53;19.03;;;11.27;;
7539;SDS011;3811;49.006;12.076;2023-03-01T02:24:28;18.07;;;10.53;;
7539;SDS011;3811;49.006;12.076;2023-03-01T02:27:03;17.93;;;10.67;;
7539;SDS011;3811;49.006;12.076;2023-03-01T02:29:34;18.80;;;11.70;;
7539;SDS011;3811;49.006;12.076;2023-03-01T02:32:01;21.10;;;10.60;;
7539;SDS011;3811;49.006;12.076;2023-03-01T02:34:28;16.93;;;10.30;;
7539;SDS011;3811;49.006;12.076;2023-03-01T02:37:00;19.20;;;10.50;;
7539;SDS011;3811;49.006;12.076;2023-03-01T02:39:31;16.60;;;10.57;;
7539;SDS011;3811;49.006;12.076;2023-03-01T02:42:00;18.40;;;10.50;;
7539;SDS011;3811;49.006;12.076;2023-03-01T02:44:28;18.37;;;10.97;;
7539;SDS011;3811;49.006;12.076;2023-03-01T02:46:58;16.57;;;10.17;;
7539;SDS011;3811;49.006;12.076;2023-03-01T02:49:28;16.80;;;10.17;;
7539;SDS011;3811;49.006;12.076;2023-03-01T02:52:01;19.30;;;11.27;;
7539;SDS011;3811;49.006;12.076;2023-03-01T02:54:39;18.70;;;9.83;;
7539;SDS011;3811;49.006;12.076;2023-03-01T02:57:10;15.07;;;10.30;;
7539;SDS011;3811;49.006;12.076;2023-03-01T02:59:38;20.10;;;10.47;;
7539;SDS011;3811;49.006;12.076;2023-03-01T03:02:16;16.80;;;9.90;;
7539;SDS011;3811;49.006;12.076;2023-03-01T03:04:46;17.53;;;10.60;;
7539;SDS011;3811;49.006;12.076;2023-03-01T03:07:13;20.57;;;11.27;;
7539;SDS011;3811;49.006;12.076;2023-03-01T03:09:41;16.40;;;10.03;;
7539;SDS011;3811;49.006;12.076;2023-03-01T03:12:08;19.97;;;10.83;;
7539;SDS011;3811;49.006;12.076;2023-03-01T03:14:35;15.80;;;10.43;;
7539;SDS011;3811;49.006;12.076;2023-03-01T03:17:03;19.67;;;11.37;;
7539;SDS011;3811;49.006;12.076;2023-03-01T03:19:33;16.27;;;11.00;;
7539;SDS011;3811;49.006;12.076;2023-03-01T03:22:00;20.63;;;11.37;;
7539;SDS011;3811;49.006;12.076;2023-03-01T03:24:27;19.60;;;11.47;;
7539;SDS011;3811;49.006;12.076;2023-03-01T03:27:03;18.97;;;10.63;;
7539;SDS011;3811;49.006;12.076;2023-03-01T03:29:30;16.77;;;9.93;;
7539;SDS011;3811;49.006;12.076;2023-03-01T03:31:57;16.30;;;9.70;;
7539;SDS011;3811;49.006;12.076;2023-03-01T03:34:25;16.83;;;10.43;;
7539;SDS011;3811;49.006;12.076;2023-03-01T03:36:54;19.93;;;11.03;;
7539;SDS011;3811;49.006;12.076;2023-03-01T03:39:24;14.60;;;9.80;;
7539;SDS011;3811;49.006;12.076;2023-03-01T03:41:52;20.10;;;11.33;;
7539;SDS011;3811;49.006;12.076;2023-03-01T03:44:19;18.43;;;10.13;;
7539;SDS011;3811;49.006;12.076;2023-03-01T03:46:47;19.63;;;10.60;;
7539;SDS011;3811;49.006;12.076;2023-03-01T03:49:14;23.23;;;10.73;;
7539;SDS011;3811;49.006;12.076;2023-03-01T03:51:41;17.03;;;10.37;;
7539;SDS011;3811;49.006;12.076;2023-03-01T03:54:10;15.47;;;10.30;;
7539;SDS011;3811;49.006;12.076;2023-03-01T03:56:38;16.47;;;10.27;;
7539;SDS011;3811;49.006;12.076;2023-03-01T03:59:05;17.87;;;10.73;;
7539;SDS011;3811;49.006;12.076;2023-03-01T04:01:32;18.53;;;10.93;;
7539;SDS011;3811;49.006;12.076;2023-03-01T04:03:59;16.00;;;10.80;;
7539;SDS011;3811;49.006;12.076;2023-03-01T04:06:29;19.07;;;10.40;;
7539;SDS011;3811;49.006;12.076;2023-03-01T04:08:56;20.57;;;10.97;;
7539;SDS011;3811;49.006;12.076;2023-03-01T04:11:27;18.80;;;10.93;;
7539;SDS011;3811;49.006;12.076;2023-03-01T04:13:55;15.23;;;10.57;;
7539;SDS011;3811;49.006;12.076;2023-03-01T04:16:23;16.73;;;10.40;;
7539;SDS011;3811;49.006;12.076;2023-03-01T04:18:51;16.83;;;9.93;;
7539;SDS011;3811;49.006;12.076;2023-03-01T04:21:23;17.40;;;10.60;;
7539;SDS011;3811;49.006;12.076;2023-03-01T04:23:50;20.07;;;10.87;;
7539;SDS011;3811;49.006;12.076;2023-03-01T04:26:18;16.27;;;10.97;;
7539;SDS011;3811;49.006;12.076;2023-03-01T04:28:47;16.13;;;9.57;;
7539;SDS011;3811;49.006;12.076;2023-03-01T04:31:17;16.73;;;10.50;;
7539;SDS011;3811;49.006;12.076;2023-03-01T04:33:47;18.53;;;10.20;;
7539;SDS011;3811;49.006;12.076;2023-03-01T04:36:16;19.37;;;10.73;;
7539;SDS011;3811;49.006;12.076;2023-03-01T04:38:44;17.73;;;10.83;;
7539;SDS011;3811;49.006;12.076;2023-03-01T04:41:13;18.47;;;11.23;;
7539;SDS011;3811;49.006;12.076;2023-03-01T04:43:41;22.80;;;11.23;;
7539;SDS011;3811;49.006;12.076;2023-03-01T04:46:11;19.80;;;11.00;;
7539;SDS011;3811;49.006;12.076;2023-03-01T04:48:39;16.93;;;10.93;;
7539;SDS011;3811;49.006;12.076;2023-03-01T04:51:07;20.57;;;11.33;;
7539;SDS011;3811;49.006;12.076;2023-03-01T04:53:35;17.07;;;10.83;;
7539;SDS011;3811;49.006;12.076;2023-03-01T04:56:02;18.52;;;10.73;;
7539;SDS011;3811;49.006;12.076;2023-03-01T04:58:30;22.45;;;11.52;;
7539;SDS011;3811;49.006;12.076;2023-03-01T05:00:57;16.33;;;10.60;;
7539;SDS011;3811;49.006;12.076;2023-03-01T05:03:26;19.03;;;10.57;;
7539;SDS011;3811;49.006;12.076;2023-03-01T05:05:53;17.93;;;11.27;;
7539;SDS011;3811;49.006;12.076;2023-03-01T05:08:21;19.83;;;12.13;;
7539;SDS011;3811;49.006;12.076;2023-03-01T05:10:49;18.90;;;11.20;;
7539;SDS011;3811;49.006;12.076;2023-03-01T05:13:17;21.47;;;11.63;;
7539;SDS011;3811;49.006;12.076;2023-03-01T05:15:47;17.67;;;10.23;;
7539;SDS011;3811;49.006;12.076;2023-03-01T05:18:15;20.35;;;11.68;;
7539;SDS011;3811;49.006;12.076;2023-03-01T05:20:43;20.70;;;11.00;;
7539;SDS011;3811;49.006;12.076;2023-03-01T05:23:11;19.37;;;10.90;;
7539;SDS011;3811;49.006;12.076;2023-03-01T05:25:53;18.77;;;10.77;;
7539;SDS011;3811;49.006;12.076;2023-03-01T05:28:25;18.55;;;12.05;;
7539;SDS011;3811;49.006;12.076;2023-03-01T05:30:53;21.43;;;11.43;;
7539;SDS011;3811;49.006;12.076;2023-03-01T05:36:12;40.37;;;16.40;;
7539;SDS011;3811;49.006;12.076;2023-03-01T05:38:39;33.08;;;18.13;;
7539;SDS011;3811;49.006;12.076;2023-03-01T05:41:15;18.87;;;11.37;;
7539;SDS011;3811;49.006;12.076;2023-03-01T05:43:43;21.38;;;11.05;;
7539;SDS011;3811;49.006;12.076;2023-03-01T05:46:10;19.07;;;11.63;;
7539;SDS011;3811;49.006;12.076;2023-03-01T05:48:38;22.20;;;11.17;;
7539;SDS011;3811;49.006;12.076;2023-03-01T05:51:05;25.90;;;11.13;;
7539;SDS011;3811;49.006;12.076;2023-03-01T05:53:33;20.17;;;11.83;;
7539;SDS011;3811;49.006;12.076;2023-03-01T05:56:02;17.27;;;10.67;;
7539;SDS011;3811;49.006;12.076;2023-03-01T05:58:30;18.73;;;10.87;;
7539;SDS011;3811;49.006;12.076;2023-03-01T06:00:57;19.27;;;10.90;;
7539;SDS011;3811;49.006;12.076;2023-03-01T06:03:24;20.70;;;10.83;;
7539;SDS011;3811;49.006;12.076;2023-03-01T06:05:55;19.42;;;11.25;;
7539;SDS011;3811;49.006;12.076;2023-03-01T06:08:22;22.73;;;12.50;;
7539;SDS011;3811;49.006;12.076;2023-03-01T06:10:53;21.60;;;12.23;;
7539;SDS011;3811;49.006;12.076;2023-03-01T06:13:20;22.23;;;12.60;;
7539;SDS011;3811;49.006;12.076;2023-03-01T06:15:48;20.97;;;11.07;;
7539;SDS011;3811;49.006;12.076;2023-03-01T06:18:15;19.30;;;11.70;;
7539;SDS011;3811;49.006;12.076;2023-03-01T06:20:43;17.90;;;10.57;;
7539;SDS011;3811;49.006;12.076;2023-03-01T06:23:10;22.53;;;12.67;;
7539;SDS011;3811;49.006;12.076;2023-03-01T06:25:38;18.90;;;11.47;;
7539;SDS011;3811;49.006;12.076;2023-03-01T06:28:06;23.17;;;12.33;;
7539;SDS011;3811;49.006;12.076;2023-03-01T06:30:34;21.47;;;13.13;;
7539;SDS011;3811;49.006;12.076;2023-03-01T06:33:01;21.17;;;12.10;;
7539;SDS011;3811;49.006;12.076;2023-03-01T06:35:29;20.33;;;11.40;;
7539;SDS011;3811;49.006;12.076;2023-03-01T06:37:57;21.00;;;11.57;;
7539;SDS011;3811;49.006;12.076;2023-03-01T06:40:26;22.23;;;11.70;;
7539;SDS011;3811;49.006;12.076;2023-03-01T06:42:54;21.30;;;11.87;;
7539;SDS011;3811;49.006;12.076;2023-03-01T06:45:23;19.07;;;11.83;;
7539;SDS011;3811;49.006;12.076;2023-03-01T06:47:50;23.40;;;11.80;;
7539;SDS011;3811;49.006;12.076;2023-03-01T06:50:17;15.47;;;10.00;;
7539;SDS011;3811;49.006;12.076;2023-03-01T06:52:45;20.00;;;10.87;;
7539;SDS011;3811;49.006;12.076;2023-03-01T06:55:13;18.97;;;11.67;;
7539;SDS011;3811;49.006;12.076;2023-03-01T06:57:40;17.97;;;12.00;;
7539;SDS011;3811;49.006;12.076;2023-03-01T07:00:08;18.60;;;11.57;;
7539;SDS011;3811;49.006;12.076;2023-03-01T07:02:37;23.20;;;11.53;;
7539;SDS011;3811;49.006;12.076;2023-03-01T07:05:05;20.97;;;12.03;;
7539;SDS011;3811;49.006;12.076;2023-03-01T07:07:32;19.63;;;10.43;;
7539;SDS011;3811;49.006;12.076;2023-03-01T07:09:59;19.50;;;10.70;;
7539;SDS011;3811;49.006;12.076;2023-03-01T07:12:28;19.40;;;11.57;;
7539;SDS011;3811;49.006;12.076;2023-03-01T07:14:57;20.67;;;11.23;;
7539;SDS011;3811;49.006;12.076;2023-03-01T07:17:25;22.03;;;11.60;;
7539;SDS011;3811;49.006;12.076;2023-03-01T07:19:53;20.73;;;12.83;;
7539;SDS011;3811;49.006;12.076;2023-03-01T07:22:21;20.13;;;11.90;;
7539;SDS011;3811;49.006;12.076;2023-03-01T07:24:56;20.40;;;11.47;;
7539;SDS011;3811;49.006;12.076;2023-03-01T07:27:23;17.17;;;10.70;;
7539;SDS011;3811;49.006;12.076;2023-03-01T07:29:51;17.50;;;11.97;;
7539;SDS011;3811;49.006;12.076;2023-03-01T07:32:18;20.03;;;11.83;;
7539;SDS011;3811;49.006;12.076;2023-03-01T07:34:45;22.53;;;11.20;;
7539;SDS011;3811;49.006;12.076;2023-03-01T07:37:14;21.53;;;12.03;;
7539;SDS011;3811;49.006;12.076;2023-03-01T07:39:41;20.50;;;11.63;;
7539;SDS011;3811;49.006;12.076;2023-03-01T07:42:09;21.83;;;11.90;;
7539;SDS011;3811;49.006;12.076;2023-03-01T07:44:36;23.20;;;12.33;;
7539;SDS011;3811;49.006;12.076;2023-03-01T07:47:04;20.70;;;11.63;;
7539;SDS011;3811;49.006;12.076;2023-03-01T07:49:31;21.33;;;12.53;;
7539;SDS011;3811;49.006;12.076;2023-03-01T07:51:59;20.40;;;12.00;;
7539;SDS011;3811;49.006;12.076;2023-03-01T07:54:28;21.17;;;11.90;;
7539;SDS011;3811;49.006;12.076;2023-03-01T07:56:56;17.67;;;11.13;;
7539;SDS011;3811;49.006;12.076;2023-03-01T07:59:23;17.80;;;11.13;;
7539;SDS011;3811;49.006;12.076;2023-03-01T08:01:54;22.00;;;11.87;;
7539;SDS011;3811;49.006;12.076;2023-03-01T08:04:21;24.63;;;12.07;;
7539;SDS011;3811;49.006;12.076;2023-03-01T08:06:49;20.10;;;11.93;;
7539;SDS011;3811;49.006;12.076;2023-03-01T08:09:28;20.60;;;12.37;;
7539;SDS011;3811;49.006;12.076;2023-03-01T08:11:56;17.90;;;11.50;;
7539;SDS011;3811;49.006;12.076;2023-03-01T08:14:24;19.23;;;11.93;;
7539;SDS011;3811;49.006;12.076;2023-03-01T08:16:51;19.80;;;11.90;;
7539;SDS011;3811;49.006;12.076;2023-03-01T08:19:20;34.57;;;16.07;;
7539;SDS011;3811;49.006;12.076;2023-03-01T08:21:48;35.50;;;15.83;;
7539;SDS011;3811;49.006;12.076;2023-03-01T08:24:15;23.87;;;12.93;;
7539;SDS011;3811;49.006;12.076;2023-03-01T08:26:44;17.90;;;12.83;;
7539;SDS011;3811;49.006;12.076;2023-03-01T08:29:11;21.33;;;11.70;;
7539;SDS011;3811;49.006;12.076;2023-03-01T08:31:39;21.87;;;12.10;;
7539;SDS011;3811;49.006;12.076;2023-03-01T08:34:07;23.30;;;13.50;;
7539;SDS011;3811;49.006;12.076;2023-03-01T08:36:36;22.53;;;12.63;;
7539;SDS011;3811;49.006;12.076;2023-03-01T08:39:05;20.73;;;11.80;;
7539;SDS011;3811;49.006;12.076;2023-03-01T08:41:32;18.93;;;11.30;;
7539;SDS011;3811;49.006;12.076;2023-03-01T08:44:09;16.13;;;11.00;;
7539;SDS011;3811;49.006;12.076;2023-03-01T08:46:38;22.87;;;11.93;;
7539;SDS011;3811;49.006;12.076;2023-03-01T08:49:05;20.67;;;12.20;;
7539;SDS011;3811;49.006;12.076;2023-03-01T08:51:33;22.00;;;12.27;;
7539;SDS011;3811;49.006;12.076;2023-03-01T08:54:02;21.50;;;12.00;;
7539;SDS011;3811;49.006;12.076;2023-03-01T08:56:29;19.93;;;12.17;;
7539;SDS011;3811;49.006;12.076;2023-03-01T08:58:56;20.57;;;12.23;;
7539;SDS011;3811;49.006;12.076;2023-03-01T09:01:25;21.10;;;13.07;;
7539;SDS011;3811;49.006;12.076;2023-03-01T09:03:53;17.93;;;11.30;;
7539;SDS011;3811;49.006;12.076;2023-03-01T09:06:21;19.23;;;12.23;;
7539;SDS011;3811;49.006;12.076;2023-03-01T09:08:49;19.83;;;11.27;;
7539;SDS011;3811;49.006;12.076;2023-03-01T09:11:24;19.07;;;12.57;;
7539;SDS011;3811;49.006;12.076;2023-03-01T09:13:51;19.53;;;11.37;;
7539;SDS011;3811;49.006;12.076;2023-03-01T09:16:19;17.70;;;11.30;;
7539;SDS011;3811;49.006;12.076;2023-03-01T09:18:49;16.73;;;11.03;;
7539;SDS011;3811;49.006;12.076;2023-03-01T09:21:18;20.13;;;11.43;;
7539;SDS011;3811;49.006;12.076;2023-03-01T09:23:47;15.73;;;11.13;;
7539;SDS011;3811;49.006;12.076;2023-03-01T09:26:14;20.57;;;11.87;;
7539;SDS011;3811;49.006;12.076;2023-03-01T09:28:44;18.67;;;11.70;;
7539;SDS011;3811;49.006;12.076;2023-03-01T09:31:13;16.47;;;10.77;;
7539;SDS011;3811;49.006;12.076;2023-03-01T09:33:45;16.97;;;11.63;;
7539;SDS011;3811;49.006;12.076;2023-03-01T09:39:07;19.17;;;11.97;;
7539;SDS011;3811;49.006;12.076;2023-03-01T09:41:45;19.87;;;12.10;;
7539;SDS011;3811;49.006;12.076;2023-03-01T09:44:27;14.27;;;11.73;;
7539;SDS011;3811;49.006;12.076;2023-03-01T09:47:00;17.33;;;12.17;;
7539;SDS011;3811;49.006;12.076;2023-03-01T09:49:29;13.40;;;10.87;;
7539;SDS011;3811;49.006;12.076;2023-03-01T09:52:02;13.27;;;10.53;;
7539;SDS011;3811;49.006;12.076;2023-03-01T09:54:48;13.23;;;10.57;;
7539;SDS011;3811;49.006;12.076;2023-03-01T09:57:20;15.10;;;11.70;;
7539;SDS011;3811;49.006;12.076;2023-03-01T10:00:03;17.33;;;13.00;;
7539;SDS011;3811;49.006;12.076;2023-03-01T10:02:41;16.67;;;12.07;;
7539;SDS011;3811;49.006;12.076;2023-03-01T10:05:15;17.60;;;13.20;;
7539;SDS011;3811;49.006;12.076;2023-03-01T10:10:58;14.83;;;12.30;;
7539;SDS011;3811;49.006;12.076;2023-03-01T10:13:27;16.80;;;13.03;;
7539;SDS011;3811;49.006;12.076;2023-03-01T10:16:01;17.03;;;12.70;;
7539;SDS011;3811;49.006;12.076;2023-03-01T10:18:36;17.57;;;12.87;;
7539;SDS011;3811;49.006;12.076;2023-03-01T10:21:08;16.13;;;13.07;;
7539;SDS011;3811;49.006;12.076;2023-03-01T10:23:41;16.23;;;12.60;;
7539;SDS011;3811;49.006;12.076;2023-03-01T10:26:15;18.70;;;12.83;;
7539;SDS011;3811;49.006;12.076;2023-03-01T10:29:02;13.83;;;11.97;;
7539;SDS011;3811;49.006;12.076;2023-03-01T10:31:36;14.13;;;11.90;;
7539;SDS011;3811;49.006;12.076;2023-03-01T10:34:09;15.50;;;12.60;;
7539;SDS011;3811;49.006;12.076;2023-03-01T10:36:39;14.00;;;11.20;;
7539;SDS011;3811;49.006;12.076;2023-03-01T10:39:13;14.03;;;11.83;;
7539;SDS011;3811;49.006;12.076;2023-03-01T10:41:51;13.80;;;11.60;;
7539;SDS011;3811;49.006;12.076;2023-03-01T10:47:04;15.23;;;12.00;;
7539;SDS011;3811;49.006;12.076;2023-03-01T10:49:31;14.67;;;12.93;;
7539;SDS011;3811;49.006;12.076;2023-03-01T10:52:10;15.47;;;13.33;;
7539;SDS011;3811;49.006;12.076;2023-03-01T10:54:47;15.50;;;12.87;;
7539;SDS011;3811;49.006;12.076;2023-03-01T10:57:29;15.33;;;13.00;;
7539;SDS011;3811;49.006;12.076;2023-03-01T11:02:46;14.57;;;12.60;;
7539;SDS011;3811;49.006;12.076;2023-03-01T11:05:17;16.73;;;13.10;;
7539;SDS011;3811;49.006;12.076;2023-03-01T11:07:47;14.57;;;12.80;;
7539;SDS011;3811;49.006;12.076;2023-03-01T11:10:17;15.67;;;13.33;;
7539;SDS011;3811;49.006;12.076;2023-03-01T11:12:46;16.40;;;13.53;;
7539;SDS011;3811;49.006;12.076;2023-03-01T11:15:21;14.97;;;12.50;;
7539;SDS011;3811;49.006;12.076;2023-03-01T11:17:52;13.83;;;12.27;;
7539;SDS011;3811;49.006;12.076;2023-03-01T11:20:24;15.13;;;12.13;;
7539;SDS011;3811;49.006;12.076;2023-03-01T11:22:54;16.90;;;12.87;;
7539;SDS011;3811;49.006;12.076;2023-03-01T11:25:25;15.10;;;12.00;;
7539;SDS011;3811;49.006;12.076;2023-03-01T11:27:55;14.23;;;12.37;;
7539;SDS011;3811;49.006;12.076;2023-03-01T11:30:24;14.33;;;12.83;;
7539;SDS011;3811;49.006;12.076;2023-03-01T11:33:01;17.03;;;13.73;;
7539;SDS011;3811;49.006;12.076;2023-03-01T11:35:35;17.53;;;13.23;;
7539;SDS011;3811;49.006;12.076;2023-03-01T11:38:09;15.60;;;13.23;;
7539;SDS011;3811;49.006;12.076;2023-03-01T11:40:47;14.00;;;12.60;;
7539;SDS011;3811;49.006;12.076;2023-03-01T11:43:20;14.50;;;12.57;;
7539;SDS011;3811;49.006;12.076;2023-03-01T11:45:57;14.90;;;13.30;;
7539;SDS011;3811;49.006;12.076;2023-03-01T11:51:35;15.50;;;13.87;;
7539;SDS011;3811;49.006;12.076;2023-03-01T11:54:20;15.57;;;13.90;;
7539;SDS011;3811;49.006;12.076;2023-03-01T11:57:03;15.60;;;13.93;;
7539;SDS011;3811;49.006;12.076;2023-03-01T11:59:43;18.30;;;13.80;;
7539;SDS011;3811;49.006;12.076;2023-03-01T12:02:37;16.80;;;14.27;;
7539;SDS011;3811;49.006;12.076;2023-03-01T12:05:21;16.23;;;13.40;;
7539;SDS011;3811;49.006;12.076;2023-03-01T12:08:12;15.57;;;13.20;;
7539;SDS011;3811;49.006;12.076;2023-03-01T12:10:48;14.87;;;13.27;;
7539;SDS011;3811;49.006;12.076;2023-03-01T12:13:26;15.43;;;13.30;;
7539;SDS011;3811;49.006;12.076;2023-03-01T12:16:08;14.77;;;12.73;;
7539;SDS011;3811;49.006;12.076;2023-03-01T12:18:52;15.83;;;12.67;;
7539;SDS011;3811;49.006;12.076;2023-03-01T12:21:45;13.40;;;12.00;;
7539;SDS011;3811;49.006;12.076;2023-03-01T12:24:40;14.73;;;13.13;;
7539;SDS011;3811;49.006;12.076;2023-03-01T12:27:27;16.33;;;12.87;;
7539;SDS011;3811;49.006;12.076;2023-03-01T12:30:18;16.07;;;14.30;;
7539;SDS011;3811;49.006;12.076;2023-03-01T12:33:08;15.33;;;13.00;;
7539;SDS011;3811;49.006;12.076;2023-03-01T12:35:50;15.60;;;13.03;;
7539;SDS011;3811;49.006;12.076;2023-03-01T12:41:10;16.07;;;13.73;;
7539;SDS011;3811;49.006;12.076;2023-03-01T12:44:01;23.00;;;14.40;;
7539;SDS011;3811;49.006;12.076;2023-03-01T12:46:45;16.37;;;12.70;;
7539;SDS011;3811;49.006;12.076;2023-03-01T12:49:20;16.40;;;12.97;;
7539;SDS011;3811;49.006;12.076;2023-03-01T12:51:54;18.20;;;13.70;;
7539;SDS011;3811;49.006;12.076;2023-03-01T12:54:26;17.53;;;13.83;;
7539;SDS011;3811;49.006;12.076;2023-03-01T12:56:56;14.67;;;12.57;;
7539;SDS011;3811;49.006;12.076;2023-03-01T12:59:33;14.70;;;12.27;;
7539;SDS011;3811;49.006;12.076;2023-03-01T13:02:09;13.97;;;12.23;;
7539;SDS011;3811;49.006;12.076;2023-03-01T13:04:49;15.27;;;12.63;;
7539;SDS011;3811;49.006;12.076;2023-03-01T13:07:24;15.53;;;13.10;;
7539;SDS011;3811;49.006;12.076;2023-03-01T13:09:59;14.33;;;12.80;;
7539;SDS011;3811;49.006;12.076;2023-03-01T13:12:53;14.30;;;12.63;;
7539;SDS011;3811;49.006;12.076;2023-03-01T13:15:30;14.17;;;12.63;;
7539;SDS011;3811;49.006;12.076;2023-03-01T13:18:01;13.97;;;12.57;;
7539;SDS011;3811;49.006;12.076;2023-03-01T13:20:31;17.17;;;14.07;;
7539;SDS011;3811;49.006;12.076;2023-03-01T13:23:02;15.27;;;13.03;;
7539;SDS011;3811;49.006;12.076;2023-03-01T13:28:47;14.97;;;12.00;;
7539;SDS011;3811;49.006;12.076;2023-03-01T13:34:33;25.50;;;18.73;;
7539;SDS011;3811;49.006;12.076;2023-03-01T13:37:09;16.27;;;12.93;;
7539;SDS011;3811;49.006;12.076;2023-03-01T13:39:44;14.30;;;12.50;;
7539;SDS011;3811;49.006;12.076;2023-03-01T13:45:03;15.50;;;12.97;;
7539;SDS011;3811;49.006;12.076;2023-03-01T13:47:41;15.67;;;13.00;;
7539;SDS011;3811;49.006;12.076;2023-03-01T13:50:17;15.80;;;13.03;;
7539;SDS011;3811;49.006;12.076;2023-03-01T13:52:48;14.60;;;12.93;;
7539;SDS011;3811;49.006;12.076;2023-03-01T13:55:20;14.83;;;12.90;;
7539;SDS011;3811;49.006;12.076;2023-03-01T13:57:51;14.77;;;13.17;;
7539;SDS011;3811;49.006;12.076;2023-03-01T14:00:26;15.97;;;13.60;;
7539;SDS011;3811;49.006;12.076;2023-03-01T14:03:08;15.13;;;13.53;;
7539;SDS011;3811;49.006;12.076;2023-03-01T14:05:37;15.07;;;12.97;;
7539;SDS011;3811;49.006;12.076;2023-03-01T14:08:05;15.20;;;13.23;;
7539;SDS011;3811;49.006;12.076;2023-03-01T14:10:47;14.27;;;12.77;;
7539;SDS011;3811;49.006;12.076;2023-03-01T14:13:28;16.70;;;12.90;;
7539;SDS011;3811;49.006;12.076;2023-03-01T14:16:03;16.43;;;12.17;;
7539;SDS011;3811;49.006;12.076;2023-03-01T14:18:34;18.67;;;12.30;;
7539;SDS011;3811;49.006;12.076;2023-03-01T14:21:08;15.63;;;12.67;;
7539;SDS011;3811;49.006;12.076;2023-03-01T14:23:40;14.57;;;12.07;;
7539;SDS011;3811;49.006;12.076;2023-03-01T14:26:08;15.70;;;11.83;;
7539;SDS011;3811;49.006;12.076;2023-03-01T14:28:37;18.67;;;12.73;;
7539;SDS011;3811;49.006;12.076;2023-03-01T14:33:58;15.10;;;11.47;;
7539;SDS011;3811;49.006;12.076;2023-03-01T14:36:27;14.30;;;11.07;;
7539;SDS011;3811;49.006;12.076;2023-03-01T14:38:57;14.40;;;11.53;;
7539;SDS011;3811;49.006;12.076;2023-03-01T14:41:30;14.53;;;11.73;;
7539;SDS011;3811;49.006;12.076;2023-03-01T14:43:59;14.27;;;11.50;;
7539;SDS011;3811;49.006;12.076;2023-03-01T14:46:28;15.27;;;11.67;;
7539;SDS011;3811;49.006;12.076;2023-03-01T14:49:01;12.03;;;10.73;;
7539;SDS011;3811;49.006;12.076;2023-03-01T14:51:31;15.63;;;11.60;;
7539;SDS011;3811;49.006;12.076;2023-03-01T14:54:04;14.27;;;11.43;;
7539;SDS011;3811;49.006;12.076;2023-03-01T14:56:42;13.90;;;11.23;;
7539;SDS011;3811;49.006;12.076;2023-03-01T14:59:10;16.53;;;11.40;;
7539;SDS011;3811;49.006;12.076;2023-03-01T15:01:39;15.30;;;11.33;;
7539;SDS011;3811;49.006;12.076;2023-03-01T15:04:09;15.33;;;11.40;;
7539;SDS011;3811;49.006;12.076;2023-03-01T15:06:40;15.37;;;11.50;;
7539;SDS011;3811;49.006;12.076;2023-03-01T15:09:11;15.67;;;12.23;;
7539;SDS011;3811;49.006;12.076;2023-03-01T15:11:40;12.87;;;10.97;;
7539;SDS011;3811;49.006;12.076;2023-03-01T15:17:16;17.87;;;11.93;;
7539;SDS011;3811;49.006;12.076;2023-03-01T15:19:49;15.17;;;11.10;;
7539;SDS011;3811;49.006;12.076;2023-03-01T15:22:18;14.90;;;11.97;;
7539;SDS011;3811;49.006;12.076;2023-03-01T15:24:47;16.30;;;11.50;;
7539;SDS011;3811;49.006;12.076;2023-03-01T15:27:16;14.93;;;11.60;;
7539;SDS011;3811;49.006;12.076;2023-03-01T15:29:47;17.80;;;12.33;;
7539;SDS011;3811;49.006;12.076;2023-03-01T15:32:26;16.93;;;12.00;;
7539;SDS011;3811;49.006;12.076;2023-03-01T15:34:56;16.13;;;11.63;;
7539;SDS011;3811;49.006;12.076;2023-03-01T15:37:39;18.03;;;12.63;;